sensor_id;sensor_type;location;lat;lon;timestamp;P1;durP1;ratioP1;P2;durP2;ratioP2
11500;SDS011;5807;51.606;7.624;2022-11-15T00:00:49;10.40;;;8.57;;
11500;SDS011;5807;51.606;7.624;2022-11-15T00:03:16;9.83;;;8.37;;
11500;SDS011;5807;51.606;7.624;2022-11-15T00:05:45;13.13;;;9.13;;
11500;SDS011;5807;51.606;7.624;2022-11-15T00:08:12;11.10;;;7.80;;
11500;SDS011;5807;51.606;7.624;2022-11-15T00:10:39;13.13;;;8.93;;
11500;SDS011;5807;51.606;7.624;2022-11-15T00:13:06;11.63;;;9.00;;
11500;SDS011;5807;51.606;7.624;2022-11-15T00:15:34;13.13;;;10.07;;
11500;SDS011;5807;51.606;7.624;2022-11-15T00:18:03;10.33;;;9.03;;
11500;SDS011;5807;51.606;7.624;2022-11-15T00:20:33;12.43;;;10.00;;
11500;SDS011;5807;51.606;7.624;2022-11-15T00:23:00;12.53;;;9.23;;
11500;SDS011;5807;51.606;7.624;2022-11-15T00:25:28;10.90;;;9.57;;
11500;SDS011;5807;51.606;7.624;2022-11-15T00:27:55;11.70;;;9.57;;
11500;SDS011;5807;51.606;7.624;2022-11-15T00:30:23;16.10;;;9.57;;
11500;SDS011;5807;51.606;7.624;2022-11-15T00:32:50;12.23;;;9.43;;
11500;SDS011;5807;51.606;7.624;2022-11-15T00:35:19;10.87;;;9.10;;
11500;SDS011;5807;51.606;7.624;2022-11-15T00:37:46;11.00;;;8.00;;
11500;SDS011;5807;51.606;7.624;2022-11-15T00:40:13;12.37;;;9.30;;
11500;SDS011;5807;51.606;7.624;2022-11-15T00:42:41;11.83;;;9.67;;
11500;SDS011;5807;51.606;7.624;2022-11-15T00:45:08;11.87;;;10.47;;
11500;SDS011;5807;51.606;7.624;2022-11-15T00:47:35;11.97;;;9.50;;
11500;SDS011;5807;51.606;7.624;2022-11-15T00:50:03;15.67;;;10.83;;
11500;SDS011;5807;51.606;7.624;2022-11-15T00:52:32;14.00;;;10.57;;
11500;SDS011;5807;51.606;7.624;2022-11-15T00:54:58;12.33;;;10.47;;
11500;SDS011;5807;51.606;7.624;2022-11-15T00:57:25;12.00;;;10.63;;
11500;SDS011;5807;51.606;7.624;2022-11-15T00:59:52;13.23;;;10.90;;
11500;SDS011;5807;51.606;7.624;2022-11-15T01:02:19;12.97;;;10.77;;
11500;SDS011;5807;51.606;7.624;2022-11-15T01:04:46;12.80;;;10.97;;
11500;SDS011;5807;51.606;7.624;2022-11-15T01:07:12;13.87;;;10.50;;
11500;SDS011;5807;51.606;7.624;2022-11-15T01:09:41;14.20;;;10.53;;
11500;SDS011;5807;51.606;7.624;2022-11-15T01:12:08;14.60;;;12.13;;
11500;SDS011;5807;51.606;7.624;2022-11-15T01:14:34;13.00;;;10.73;;
11500;SDS011;5807;51.606;7.624;2022-11-15T01:17:01;12.60;;;10.17;;
11500;SDS011;5807;51.606;7.624;2022-11-15T01:19:28;13.73;;;10.60;;
11500;SDS011;5807;51.606;7.624;2022-11-15T01:21:55;14.23;;;10.63;;
11500;SDS011;5807;51.606;7.624;2022-11-15T01:24:22;16.10;;;11.10;;
11500;SDS011;5807;51.606;7.624;2022-11-15T01:26:50;18.27;;;11.63;;
11500;SDS011;5807;51.606;7.624;2022-11-15T01:29:17;13.67;;;11.00;;
11500;SDS011;5807;51.606;7.624;2022-11-15T01:31:44;14.33;;;10.37;;
11500;SDS011;5807;51.606;7.624;2022-11-15T01:34:10;12.37;;;11.17;;
11500;SDS011;5807;51.606;7.624;2022-11-15T01:36:40;14.47;;;11.17;;
11500;SDS011;5807;51.606;7.624;2022-11-15T01:39:07;14.10;;;11.00;;
11500;SDS011;5807;51.606;7.624;2022-11-15T01:41:34;14.13;;;9.90;;
11500;SDS011;5807;51.606;7.624;2022-11-15T01:47:06;11.17;;;8.63;;
11500;SDS011;5807;51.606;7.624;2022-11-15T01:49:37;11.93;;;8.47;;
11500;SDS011;5807;51.606;7.624;2022-11-15T01:52:09;10.73;;;8.73;;
11500;SDS011;5807;51.606;7.624;2022-11-15T01:54:39;9.70;;;8.67;;
11500;SDS011;5807;51.606;7.624;2022-11-15T01:57:07;10.30;;;8.83;;
11500;SDS011;5807;51.606;7.624;2022-11-15T01:59:37;12.13;;;8.40;;
11500;SDS011;5807;51.606;7.624;2022-11-15T02:02:06;12.00;;;8.13;;
11500;SDS011;5807;51.606;7.624;2022-11-15T02:04:34;8.90;;;8.00;;
11500;SDS011;5807;51.606;7.624;2022-11-15T02:07:05;10.53;;;7.53;;
11500;SDS011;5807;51.606;7.624;2022-11-15T02:09:35;9.97;;;7.30;;
11500;SDS011;5807;51.606;7.624;2022-11-15T02:12:03;10.03;;;7.03;;
11500;SDS011;5807;51.606;7.624;2022-11-15T02:14:31;10.10;;;7.87;;
11500;SDS011;5807;51.606;7.624;2022-11-15T02:17:01;8.83;;;7.43;;
11500;SDS011;5807;51.606;7.624;2022-11-15T02:19:44;10.20;;;7.03;;
11500;SDS011;5807;51.606;7.624;2022-11-15T02:22:35;9.77;;;7.00;;
11500;SDS011;5807;51.606;7.624;2022-11-15T02:25:11;9.27;;;7.27;;
11500;SDS011;5807;51.606;7.624;2022-11-15T02:27:55;8.03;;;6.50;;
11500;SDS011;5807;51.606;7.624;2022-11-15T02:30:57;7.50;;;6.80;;
11500;SDS011;5807;51.606;7.624;2022-11-15T02:33:32;7.90;;;7.07;;
11500;SDS011;5807;51.606;7.624;2022-11-15T02:36:06;8.03;;;7.23;;
11500;SDS011;5807;51.606;7.624;2022-11-15T02:38:40;8.37;;;7.53;;
11500;SDS011;5807;51.606;7.624;2022-11-15T02:41:13;9.73;;;7.33;;
11500;SDS011;5807;51.606;7.624;2022-11-15T02:43:46;10.53;;;7.10;;
11500;SDS011;5807;51.606;7.624;2022-11-15T02:46:24;7.00;;;6.33;;
11500;SDS011;5807;51.606;7.624;2022-11-15T02:49:10;7.63;;;6.83;;
11500;SDS011;5807;51.606;7.624;2022-11-15T02:51:39;6.90;;;6.20;;
11500;SDS011;5807;51.606;7.624;2022-11-15T02:54:07;9.87;;;7.23;;
11500;SDS011;5807;51.606;7.624;2022-11-15T02:56:36;7.67;;;6.87;;
11500;SDS011;5807;51.606;7.624;2022-11-15T02:59:10;11.57;;;6.87;;
11500;SDS011;5807;51.606;7.624;2022-11-15T03:02:01;8.87;;;6.70;;
11500;SDS011;5807;51.606;7.624;2022-11-15T03:04:41;7.60;;;6.77;;
11500;SDS011;5807;51.606;7.624;2022-11-15T03:07:12;8.57;;;7.17;;
11500;SDS011;5807;51.606;7.624;2022-11-15T03:09:45;7.77;;;7.00;;
11500;SDS011;5807;51.606;7.624;2022-11-15T03:12:19;13.27;;;7.20;;
11500;SDS011;5807;51.606;7.624;2022-11-15T03:14:53;10.60;;;7.00;;
11500;SDS011;5807;51.606;7.624;2022-11-15T03:17:25;19.23;;;7.13;;
11500;SDS011;5807;51.606;7.624;2022-11-15T03:19:55;9.57;;;6.77;;
11500;SDS011;5807;51.606;7.624;2022-11-15T03:22:24;12.10;;;6.30;;
11500;SDS011;5807;51.606;7.624;2022-11-15T03:24:55;7.17;;;6.47;;
11500;SDS011;5807;51.606;7.624;2022-11-15T03:27:27;11.87;;;6.83;;
11500;SDS011;5807;51.606;7.624;2022-11-15T03:29:59;8.10;;;6.43;;
11500;SDS011;5807;51.606;7.624;2022-11-15T03:32:31;7.33;;;6.47;;
11500;SDS011;5807;51.606;7.624;2022-11-15T03:35:04;7.60;;;6.77;;
11500;SDS011;5807;51.606;7.624;2022-11-15T03:37:35;7.23;;;6.53;;
11500;SDS011;5807;51.606;7.624;2022-11-15T03:40:06;8.90;;;6.60;;
11500;SDS011;5807;51.606;7.624;2022-11-15T03:42:35;7.77;;;6.93;;
11500;SDS011;5807;51.606;7.624;2022-11-15T03:45:10;8.40;;;7.40;;
11500;SDS011;5807;51.606;7.624;2022-11-15T03:47:43;10.90;;;7.77;;
11500;SDS011;5807;51.606;7.624;2022-11-15T03:50:16;8.40;;;7.20;;
11500;SDS011;5807;51.606;7.624;2022-11-15T03:52:46;9.93;;;6.73;;
11500;SDS011;5807;51.606;7.624;2022-11-15T03:55:16;7.80;;;6.97;;
11500;SDS011;5807;51.606;7.624;2022-11-15T03:57:44;7.40;;;6.67;;
11500;SDS011;5807;51.606;7.624;2022-11-15T04:00:12;9.13;;;6.70;;
11500;SDS011;5807;51.606;7.624;2022-11-15T04:02:39;8.30;;;6.07;;
11500;SDS011;5807;51.606;7.624;2022-11-15T04:05:07;7.40;;;6.50;;
11500;SDS011;5807;51.606;7.624;2022-11-15T04:07:34;8.03;;;5.90;;
11500;SDS011;5807;51.606;7.624;2022-11-15T04:10:04;9.57;;;6.77;;
11500;SDS011;5807;51.606;7.624;2022-11-15T04:12:32;7.83;;;6.53;;
11500;SDS011;5807;51.606;7.624;2022-11-15T04:15:01;7.30;;;6.00;;
11500;SDS011;5807;51.606;7.624;2022-11-15T04:17:36;6.57;;;5.90;;
11500;SDS011;5807;51.606;7.624;2022-11-15T04:20:06;7.50;;;6.60;;
11500;SDS011;5807;51.606;7.624;2022-11-15T04:22:54;6.57;;;5.80;;
11500;SDS011;5807;51.606;7.624;2022-11-15T04:25:39;8.77;;;6.70;;
11500;SDS011;5807;51.606;7.624;2022-11-15T04:28:07;7.57;;;6.83;;
11500;SDS011;5807;51.606;7.624;2022-11-15T04:30:34;7.17;;;5.97;;
11500;SDS011;5807;51.606;7.624;2022-11-15T04:33:01;7.50;;;5.50;;
11500;SDS011;5807;51.606;7.624;2022-11-15T04:35:30;7.77;;;6.57;;
11500;SDS011;5807;51.606;7.624;2022-11-15T04:37:57;8.27;;;5.90;;
11500;SDS011;5807;51.606;7.624;2022-11-15T04:40:23;7.30;;;5.37;;
11500;SDS011;5807;51.606;7.624;2022-11-15T04:42:50;5.70;;;5.17;;
11500;SDS011;5807;51.606;7.624;2022-11-15T04:45:17;5.77;;;5.07;;
11500;SDS011;5807;51.606;7.624;2022-11-15T04:47:43;7.23;;;5.83;;
11500;SDS011;5807;51.606;7.624;2022-11-15T04:50:11;5.70;;;5.20;;
11500;SDS011;5807;51.606;7.624;2022-11-15T04:52:40;6.07;;;5.53;;
11500;SDS011;5807;51.606;7.624;2022-11-15T04:55:08;6.63;;;5.07;;
11500;SDS011;5807;51.606;7.624;2022-11-15T04:57:35;6.47;;;5.87;;
11500;SDS011;5807;51.606;7.624;2022-11-15T05:00:03;6.90;;;6.20;;
11500;SDS011;5807;51.606;7.624;2022-11-15T05:02:31;6.17;;;5.57;;
11500;SDS011;5807;51.606;7.624;2022-11-15T05:05:11;8.73;;;6.17;;
11500;SDS011;5807;51.606;7.624;2022-11-15T05:07:38;7.37;;;5.90;;
11500;SDS011;5807;51.606;7.624;2022-11-15T05:10:07;6.77;;;5.97;;
11500;SDS011;5807;51.606;7.624;2022-11-15T05:12:34;6.47;;;5.20;;
11500;SDS011;5807;51.606;7.624;2022-11-15T05:15:01;8.13;;;7.03;;
11500;SDS011;5807;51.606;7.624;2022-11-15T05:17:29;6.87;;;5.63;;
11500;SDS011;5807;51.606;7.624;2022-11-15T05:19:55;6.20;;;5.60;;
11500;SDS011;5807;51.606;7.624;2022-11-15T05:22:22;6.90;;;6.10;;
11500;SDS011;5807;51.606;7.624;2022-11-15T05:24:50;6.70;;;6.00;;
11500;SDS011;5807;51.606;7.624;2022-11-15T05:27:17;7.53;;;6.27;;
11500;SDS011;5807;51.606;7.624;2022-11-15T05:29:44;7.83;;;6.20;;
11500;SDS011;5807;51.606;7.624;2022-11-15T05:32:11;6.50;;;5.90;;
11500;SDS011;5807;51.606;7.624;2022-11-15T05:34:38;6.77;;;5.90;;
11500;SDS011;5807;51.606;7.624;2022-11-15T05:37:05;7.57;;;6.90;;
11500;SDS011;5807;51.606;7.624;2022-11-15T05:39:32;6.73;;;5.97;;
11500;SDS011;5807;51.606;7.624;2022-11-15T05:42:00;6.37;;;5.80;;
11500;SDS011;5807;51.606;7.624;2022-11-15T05:44:32;6.90;;;5.80;;
11500;SDS011;5807;51.606;7.624;2022-11-15T05:47:00;7.30;;;5.87;;
11500;SDS011;5807;51.606;7.624;2022-11-15T05:49:30;7.90;;;5.90;;
11500;SDS011;5807;51.606;7.624;2022-11-15T05:52:02;5.37;;;4.87;;
11500;SDS011;5807;51.606;7.624;2022-11-15T05:54:29;6.07;;;5.50;;
11500;SDS011;5807;51.606;7.624;2022-11-15T05:56:58;7.57;;;5.50;;
11500;SDS011;5807;51.606;7.624;2022-11-15T05:59:27;7.47;;;5.60;;
11500;SDS011;5807;51.606;7.624;2022-11-15T06:01:55;5.93;;;4.93;;
11500;SDS011;5807;51.606;7.624;2022-11-15T06:04:22;6.03;;;5.13;;
11500;SDS011;5807;51.606;7.624;2022-11-15T06:06:49;6.70;;;5.00;;
11500;SDS011;5807;51.606;7.624;2022-11-15T06:09:16;5.50;;;5.00;;
11500;SDS011;5807;51.606;7.624;2022-11-15T06:11:42;5.13;;;4.63;;
11500;SDS011;5807;51.606;7.624;2022-11-15T06:14:09;4.73;;;4.37;;
11500;SDS011;5807;51.606;7.624;2022-11-15T06:16:37;4.60;;;4.20;;
11500;SDS011;5807;51.606;7.624;2022-11-15T06:19:05;4.37;;;3.97;;
11500;SDS011;5807;51.606;7.624;2022-11-15T06:21:32;5.47;;;4.73;;
11500;SDS011;5807;51.606;7.624;2022-11-15T06:23:59;5.30;;;4.80;;
11500;SDS011;5807;51.606;7.624;2022-11-15T06:26:26;5.47;;;4.83;;
11500;SDS011;5807;51.606;7.624;2022-11-15T06:28:53;5.17;;;4.67;;
11500;SDS011;5807;51.606;7.624;2022-11-15T06:31:20;6.87;;;4.67;;
11500;SDS011;5807;51.606;7.624;2022-11-15T06:33:48;5.30;;;4.67;;
11500;SDS011;5807;51.606;7.624;2022-11-15T06:36:15;5.17;;;4.60;;
11500;SDS011;5807;51.606;7.624;2022-11-15T06:38:43;4.93;;;4.47;;
11500;SDS011;5807;51.606;7.624;2022-11-15T06:41:10;4.50;;;4.10;;
11500;SDS011;5807;51.606;7.624;2022-11-15T06:43:38;5.20;;;4.70;;
11500;SDS011;5807;51.606;7.624;2022-11-15T06:46:06;4.33;;;3.93;;
11500;SDS011;5807;51.606;7.624;2022-11-15T06:48:33;4.37;;;3.97;;
11500;SDS011;5807;51.606;7.624;2022-11-15T06:51:03;4.63;;;4.23;;
11500;SDS011;5807;51.606;7.624;2022-11-15T06:53:31;4.37;;;4.00;;
11500;SDS011;5807;51.606;7.624;2022-11-15T06:55:58;4.57;;;4.17;;
11500;SDS011;5807;51.606;7.624;2022-11-15T06:58:26;3.97;;;3.67;;
11500;SDS011;5807;51.606;7.624;2022-11-15T07:00:57;3.93;;;3.63;;
11500;SDS011;5807;51.606;7.624;2022-11-15T07:03:26;3.70;;;3.40;;
11500;SDS011;5807;51.606;7.624;2022-11-15T07:05:53;4.10;;;3.70;;
11500;SDS011;5807;51.606;7.624;2022-11-15T07:08:22;4.30;;;3.90;;
11500;SDS011;5807;51.606;7.624;2022-11-15T07:10:52;3.27;;;3.07;;
11500;SDS011;5807;51.606;7.624;2022-11-15T07:13:19;5.90;;;3.40;;
11500;SDS011;5807;51.606;7.624;2022-11-15T07:15:46;3.90;;;3.60;;
11500;SDS011;5807;51.606;7.624;2022-11-15T07:18:12;4.67;;;3.27;;
11500;SDS011;5807;51.606;7.624;2022-11-15T07:20:39;3.33;;;3.07;;
11500;SDS011;5807;51.606;7.624;2022-11-15T07:23:06;3.57;;;3.27;;
11500;SDS011;5807;51.606;7.624;2022-11-15T07:25:34;3.37;;;3.03;;
11500;SDS011;5807;51.606;7.624;2022-11-15T07:28:01;3.63;;;3.33;;
11500;SDS011;5807;51.606;7.624;2022-11-15T07:30:29;3.10;;;2.90;;
11500;SDS011;5807;51.606;7.624;2022-11-15T07:32:56;4.03;;;2.70;;
11500;SDS011;5807;51.606;7.624;2022-11-15T07:35:24;3.33;;;2.60;;
11500;SDS011;5807;51.606;7.624;2022-11-15T07:37:52;2.60;;;2.40;;
11500;SDS011;5807;51.606;7.624;2022-11-15T07:40:20;2.67;;;2.47;;
11500;SDS011;5807;51.606;7.624;2022-11-15T07:42:49;2.70;;;2.50;;
11500;SDS011;5807;51.606;7.624;2022-11-15T07:45:18;2.77;;;2.57;;
11500;SDS011;5807;51.606;7.624;2022-11-15T07:47:45;2.60;;;2.40;;
11500;SDS011;5807;51.606;7.624;2022-11-15T07:50:12;2.70;;;2.50;;
11500;SDS011;5807;51.606;7.624;2022-11-15T07:52:39;2.10;;;2.00;;
11500;SDS011;5807;51.606;7.624;2022-11-15T07:55:06;2.20;;;2.10;;
11500;SDS011;5807;51.606;7.624;2022-11-15T07:57:35;2.40;;;2.20;;
11500;SDS011;5807;51.606;7.624;2022-11-15T08:00:04;2.00;;;1.90;;
11500;SDS011;5807;51.606;7.624;2022-11-15T08:02:32;3.07;;;2.20;;
11500;SDS011;5807;51.606;7.624;2022-11-15T08:05:00;2.20;;;2.00;;
11500;SDS011;5807;51.606;7.624;2022-11-15T08:07:28;2.50;;;2.40;;
11500;SDS011;5807;51.606;7.624;2022-11-15T08:09:56;2.50;;;2.03;;
11500;SDS011;5807;51.606;7.624;2022-11-15T08:12:23;2.97;;;2.30;;
11500;SDS011;5807;51.606;7.624;2022-11-15T08:14:50;2.10;;;2.00;;
11500;SDS011;5807;51.606;7.624;2022-11-15T08:17:18;2.37;;;2.20;;
11500;SDS011;5807;51.606;7.624;2022-11-15T08:19:45;2.30;;;2.10;;
11500;SDS011;5807;51.606;7.624;2022-11-15T08:22:12;6.20;;;2.13;;
11500;SDS011;5807;51.606;7.624;2022-11-15T08:24:39;2.20;;;2.10;;
11500;SDS011;5807;51.606;7.624;2022-11-15T08:27:06;1.97;;;1.87;;
11500;SDS011;5807;51.606;7.624;2022-11-15T08:29:40;2.00;;;1.90;;
11500;SDS011;5807;51.606;7.624;2022-11-15T08:32:07;2.73;;;1.87;;
11500;SDS011;5807;51.606;7.624;2022-11-15T08:34:36;1.80;;;1.70;;
11500;SDS011;5807;51.606;7.624;2022-11-15T08:37:03;1.90;;;1.80;;
11500;SDS011;5807;51.606;7.624;2022-11-15T08:39:30;1.90;;;1.80;;
11500;SDS011;5807;51.606;7.624;2022-11-15T08:41:58;1.80;;;1.70;;
11500;SDS011;5807;51.606;7.624;2022-11-15T08:44:25;1.90;;;1.80;;
11500;SDS011;5807;51.606;7.624;2022-11-15T08:46:52;2.57;;;2.37;;
11500;SDS011;5807;51.606;7.624;2022-11-15T08:49:19;2.17;;;2.07;;
11500;SDS011;5807;51.606;7.624;2022-11-15T08:51:47;2.77;;;2.03;;
11500;SDS011;5807;51.606;7.624;2022-11-15T08:54:14;2.03;;;1.90;;
11500;SDS011;5807;51.606;7.624;2022-11-15T08:56:41;2.40;;;2.30;;
11500;SDS011;5807;51.606;7.624;2022-11-15T08:59:08;2.00;;;1.90;;
11500;SDS011;5807;51.606;7.624;2022-11-15T09:01:35;2.33;;;1.87;;
11500;SDS011;5807;51.606;7.624;2022-11-15T09:04:02;2.07;;;1.97;;
11500;SDS011;5807;51.606;7.624;2022-11-15T09:06:29;1.80;;;1.70;;
11500;SDS011;5807;51.606;7.624;2022-11-15T09:08:58;2.20;;;2.10;;
11500;SDS011;5807;51.606;7.624;2022-11-15T09:11:27;2.10;;;2.00;;
11500;SDS011;5807;51.606;7.624;2022-11-15T09:13:54;2.03;;;1.93;;
11500;SDS011;5807;51.606;7.624;2022-11-15T09:16:21;1.63;;;1.60;;
11500;SDS011;5807;51.606;7.624;2022-11-15T09:18:47;2.00;;;1.80;;
11500;SDS011;5807;51.606;7.624;2022-11-15T09:21:14;1.80;;;1.70;;
11500;SDS011;5807;51.606;7.624;2022-11-15T09:23:41;1.70;;;1.60;;
11500;SDS011;5807;51.606;7.624;2022-11-15T09:26:10;1.90;;;1.80;;
11500;SDS011;5807;51.606;7.624;2022-11-15T09:28:37;3.57;;;1.60;;
11500;SDS011;5807;51.606;7.624;2022-11-15T09:31:06;2.77;;;1.43;;
11500;SDS011;5807;51.606;7.624;2022-11-15T09:33:33;1.93;;;1.73;;
11500;SDS011;5807;51.606;7.624;2022-11-15T09:36:01;2.50;;;1.67;;
11500;SDS011;5807;51.606;7.624;2022-11-15T09:38:29;1.50;;;1.40;;
11500;SDS011;5807;51.606;7.624;2022-11-15T09:41:17;1.50;;;1.37;;
11500;SDS011;5807;51.606;7.624;2022-11-15T09:43:57;1.73;;;1.53;;
11500;SDS011;5807;51.606;7.624;2022-11-15T09:46:37;1.80;;;1.70;;
11500;SDS011;5807;51.606;7.624;2022-11-15T09:49:14;3.90;;;1.47;;
11500;SDS011;5807;51.606;7.624;2022-11-15T09:51:43;1.50;;;1.40;;
11500;SDS011;5807;51.606;7.624;2022-11-15T09:54:18;1.57;;;1.40;;
11500;SDS011;5807;51.606;7.624;2022-11-15T09:56:54;1.50;;;1.40;;
11500;SDS011;5807;51.606;7.624;2022-11-15T09:59:35;1.93;;;1.70;;
11500;SDS011;5807;51.606;7.624;2022-11-15T10:02:17;1.80;;;1.70;;
11500;SDS011;5807;51.606;7.624;2022-11-15T10:04:56;2.57;;;1.37;;
11500;SDS011;5807;51.606;7.624;2022-11-15T10:07:25;1.17;;;1.17;;
11500;SDS011;5807;51.606;7.624;2022-11-15T10:09:58;1.40;;;1.30;;
11500;SDS011;5807;51.606;7.624;2022-11-15T10:12:30;1.47;;;1.20;;
11500;SDS011;5807;51.606;7.624;2022-11-15T10:15:02;1.70;;;1.30;;
11500;SDS011;5807;51.606;7.624;2022-11-15T10:20:30;2.43;;;1.53;;
11500;SDS011;5807;51.606;7.624;2022-11-15T10:23:05;3.07;;;1.40;;
11500;SDS011;5807;51.606;7.624;2022-11-15T10:25:36;1.67;;;1.33;;
11500;SDS011;5807;51.606;7.624;2022-11-15T10:28:06;1.77;;;1.67;;
11500;SDS011;5807;51.606;7.624;2022-11-15T10:30:42;1.37;;;1.27;;
11500;SDS011;5807;51.606;7.624;2022-11-15T10:33:12;1.10;;;1.10;;
11500;SDS011;5807;51.606;7.624;2022-11-15T10:35:44;1.87;;;1.70;;
11500;SDS011;5807;51.606;7.624;2022-11-15T10:38:11;2.10;;;1.30;;
11500;SDS011;5807;51.606;7.624;2022-11-15T10:40:39;2.00;;;1.30;;
11500;SDS011;5807;51.606;7.624;2022-11-15T10:43:14;1.53;;;1.43;;
11500;SDS011;5807;51.606;7.624;2022-11-15T10:45:44;1.20;;;1.20;;
11500;SDS011;5807;51.606;7.624;2022-11-15T10:48:19;1.20;;;1.20;;
11500;SDS011;5807;51.606;7.624;2022-11-15T10:50:50;1.40;;;1.30;;
11500;SDS011;5807;51.606;7.624;2022-11-15T10:53:20;1.30;;;1.30;;
11500;SDS011;5807;51.606;7.624;2022-11-15T10:55:57;2.13;;;1.00;;
11500;SDS011;5807;51.606;7.624;2022-11-15T10:58:30;1.80;;;1.37;;
11500;SDS011;5807;51.606;7.624;2022-11-15T11:01:14;1.03;;;1.03;;
11500;SDS011;5807;51.606;7.624;2022-11-15T11:03:43;2.20;;;1.03;;
11500;SDS011;5807;51.606;7.624;2022-11-15T11:06:11;1.30;;;1.30;;
11500;SDS011;5807;51.606;7.624;2022-11-15T11:08:40;1.43;;;1.20;;
11500;SDS011;5807;51.606;7.624;2022-11-15T11:11:19;2.23;;;1.47;;
11500;SDS011;5807;51.606;7.624;2022-11-15T11:13:46;1.17;;;1.17;;
11500;SDS011;5807;51.606;7.624;2022-11-15T11:16:18;1.53;;;1.43;;
11500;SDS011;5807;51.606;7.624;2022-11-15T11:18:56;1.30;;;1.20;;
11500;SDS011;5807;51.606;7.624;2022-11-15T11:21:32;1.10;;;1.10;;
11500;SDS011;5807;51.606;7.624;2022-11-15T11:24:08;1.10;;;1.10;;
11500;SDS011;5807;51.606;7.624;2022-11-15T11:26:44;1.47;;;1.37;;
11500;SDS011;5807;51.606;7.624;2022-11-15T11:29:26;1.50;;;1.40;;
11500;SDS011;5807;51.606;7.624;2022-11-15T11:32:06;1.60;;;1.20;;
11500;SDS011;5807;51.606;7.624;2022-11-15T11:34:46;1.40;;;1.33;;
11500;SDS011;5807;51.606;7.624;2022-11-15T11:37:26;2.17;;;1.60;;
11500;SDS011;5807;51.606;7.624;2022-11-15T11:40:04;1.20;;;1.20;;
11500;SDS011;5807;51.606;7.624;2022-11-15T11:42:41;1.60;;;1.50;;
11500;SDS011;5807;51.606;7.624;2022-11-15T11:45:15;2.90;;;1.40;;
11500;SDS011;5807;51.606;7.624;2022-11-15T11:47:47;1.37;;;1.30;;
11500;SDS011;5807;51.606;7.624;2022-11-15T11:50:22;1.60;;;1.50;;
11500;SDS011;5807;51.606;7.624;2022-11-15T11:52:54;1.00;;;1.00;;
11500;SDS011;5807;51.606;7.624;2022-11-15T11:55:24;1.40;;;1.30;;
11500;SDS011;5807;51.606;7.624;2022-11-15T11:57:59;1.43;;;1.20;;
11500;SDS011;5807;51.606;7.624;2022-11-15T12:00:31;2.93;;;1.23;;
11500;SDS011;5807;51.606;7.624;2022-11-15T12:03:05;1.77;;;1.40;;
11500;SDS011;5807;51.606;7.624;2022-11-15T12:05:38;1.27;;;1.17;;
11500;SDS011;5807;51.606;7.624;2022-11-15T12:08:14;1.30;;;1.30;;
11500;SDS011;5807;51.606;7.624;2022-11-15T12:10:50;1.43;;;1.10;;
11500;SDS011;5807;51.606;7.624;2022-11-15T12:13:24;2.17;;;1.27;;
11500;SDS011;5807;51.606;7.624;2022-11-15T12:15:59;1.27;;;1.10;;
11500;SDS011;5807;51.606;7.624;2022-11-15T12:18:33;1.20;;;1.13;;
11500;SDS011;5807;51.606;7.624;2022-11-15T12:21:01;1.40;;;1.00;;
11500;SDS011;5807;51.606;7.624;2022-11-15T12:23:32;1.10;;;1.00;;
11500;SDS011;5807;51.606;7.624;2022-11-15T12:26:05;1.27;;;1.17;;
11500;SDS011;5807;51.606;7.624;2022-11-15T12:28:38;1.40;;;1.00;;
11500;SDS011;5807;51.606;7.624;2022-11-15T12:31:11;0.97;;;0.90;;
11500;SDS011;5807;51.606;7.624;2022-11-15T12:33:43;1.13;;;1.13;;
11500;SDS011;5807;51.606;7.624;2022-11-15T12:39:01;1.47;;;1.37;;
11500;SDS011;5807;51.606;7.624;2022-11-15T12:41:29;1.00;;;1.00;;
11500;SDS011;5807;51.606;7.624;2022-11-15T12:43:57;1.10;;;1.10;;
11500;SDS011;5807;51.606;7.624;2022-11-15T12:49:43;1.10;;;1.10;;
11500;SDS011;5807;51.606;7.624;2022-11-15T12:52:12;1.20;;;1.20;;
11500;SDS011;5807;51.606;7.624;2022-11-15T12:54:49;1.30;;;1.20;;
11500;SDS011;5807;51.606;7.624;2022-11-15T12:57:22;1.20;;;1.10;;
11500;SDS011;5807;51.606;7.624;2022-11-15T12:59:59;0.97;;;0.97;;
11500;SDS011;5807;51.606;7.624;2022-11-15T13:02:29;1.20;;;1.20;;
11500;SDS011;5807;51.606;7.624;2022-11-15T13:07:59;2.00;;;1.00;;
11500;SDS011;5807;51.606;7.624;2022-11-15T13:10:29;1.57;;;1.00;;
11500;SDS011;5807;51.606;7.624;2022-11-15T13:12:58;1.00;;;1.00;;
11500;SDS011;5807;51.606;7.624;2022-11-15T13:18:26;4.27;;;1.00;;
11500;SDS011;5807;51.606;7.624;2022-11-15T13:21:01;1.80;;;1.10;;
11500;SDS011;5807;51.606;7.624;2022-11-15T13:23:54;1.30;;;1.30;;
11500;SDS011;5807;51.606;7.624;2022-11-15T13:26:21;1.10;;;1.10;;
11500;SDS011;5807;51.606;7.624;2022-11-15T13:28:49;1.13;;;1.10;;
11500;SDS011;5807;51.606;7.624;2022-11-15T13:34:03;1.00;;;1.00;;
11500;SDS011;5807;51.606;7.624;2022-11-15T13:36:51;1.37;;;1.20;;
11500;SDS011;5807;51.606;7.624;2022-11-15T13:39:26;1.50;;;1.37;;
11500;SDS011;5807;51.606;7.624;2022-11-15T13:41:54;1.43;;;1.33;;
11500;SDS011;5807;51.606;7.624;2022-11-15T13:44:22;3.80;;;1.50;;
11500;SDS011;5807;51.606;7.624;2022-11-15T13:47:00;1.20;;;1.20;;
11500;SDS011;5807;51.606;7.624;2022-11-15T13:49:29;1.43;;;1.37;;
11500;SDS011;5807;51.606;7.624;2022-11-15T13:51:57;1.57;;;1.17;;
11500;SDS011;5807;51.606;7.624;2022-11-15T13:54:27;1.67;;;1.10;;
11500;SDS011;5807;51.606;7.624;2022-11-15T13:56:57;2.40;;;1.10;;
11500;SDS011;5807;51.606;7.624;2022-11-15T13:59:28;2.53;;;1.27;;
11500;SDS011;5807;51.606;7.624;2022-11-15T14:01:58;3.70;;;1.27;;
11500;SDS011;5807;51.606;7.624;2022-11-15T14:04:29;1.63;;;1.00;;
11500;SDS011;5807;51.606;7.624;2022-11-15T14:06:58;1.40;;;1.30;;
11500;SDS011;5807;51.606;7.624;2022-11-15T14:09:32;3.13;;;1.13;;
11500;SDS011;5807;51.606;7.624;2022-11-15T14:14:55;1.90;;;1.50;;
11500;SDS011;5807;51.606;7.624;2022-11-15T14:17:32;1.00;;;1.00;;
11500;SDS011;5807;51.606;7.624;2022-11-15T14:20:01;1.17;;;1.13;;
11500;SDS011;5807;51.606;7.624;2022-11-15T14:22:50;2.07;;;1.40;;
11500;SDS011;5807;51.606;7.624;2022-11-15T14:25:20;1.60;;;1.50;;
11500;SDS011;5807;51.606;7.624;2022-11-15T14:30:35;1.67;;;1.43;;
11500;SDS011;5807;51.606;7.624;2022-11-15T14:33:11;1.63;;;1.53;;
11500;SDS011;5807;51.606;7.624;2022-11-15T14:35:48;1.97;;;1.30;;
11500;SDS011;5807;51.606;7.624;2022-11-15T14:38:15;2.03;;;1.30;;
11500;SDS011;5807;51.606;7.624;2022-11-15T14:40:43;1.80;;;1.33;;
11500;SDS011;5807;51.606;7.624;2022-11-15T14:43:11;1.27;;;1.27;;
11500;SDS011;5807;51.606;7.624;2022-11-15T14:45:38;2.80;;;1.53;;
11500;SDS011;5807;51.606;7.624;2022-11-15T14:48:06;1.47;;;1.37;;
11500;SDS011;5807;51.606;7.624;2022-11-15T14:50:33;1.73;;;1.63;;
11500;SDS011;5807;51.606;7.624;2022-11-15T14:53:00;2.20;;;1.53;;
11500;SDS011;5807;51.606;7.624;2022-11-15T14:55:28;1.43;;;1.30;;
11500;SDS011;5807;51.606;7.624;2022-11-15T14:57:58;2.13;;;1.37;;
11500;SDS011;5807;51.606;7.624;2022-11-15T15:00:27;2.23;;;2.13;;
11500;SDS011;5807;51.606;7.624;2022-11-15T15:02:54;2.37;;;1.53;;
11500;SDS011;5807;51.606;7.624;2022-11-15T15:05:22;1.97;;;1.70;;
11500;SDS011;5807;51.606;7.624;2022-11-15T15:07:50;4.00;;;1.63;;
11500;SDS011;5807;51.606;7.624;2022-11-15T15:10:18;3.10;;;1.70;;
11500;SDS011;5807;51.606;7.624;2022-11-15T15:12:45;1.77;;;1.67;;
11500;SDS011;5807;51.606;7.624;2022-11-15T15:15:14;2.70;;;2.07;;
11500;SDS011;5807;51.606;7.624;2022-11-15T15:17:42;2.47;;;1.70;;
11500;SDS011;5807;51.606;7.624;2022-11-15T15:20:09;4.23;;;1.60;;
11500;SDS011;5807;51.606;7.624;2022-11-15T15:22:36;2.30;;;1.70;;
11500;SDS011;5807;51.606;7.624;2022-11-15T15:25:08;2.93;;;1.80;;
11500;SDS011;5807;51.606;7.624;2022-11-15T15:27:46;1.70;;;1.60;;
11500;SDS011;5807;51.606;7.624;2022-11-15T15:30:14;2.20;;;2.00;;
11500;SDS011;5807;51.606;7.624;2022-11-15T15:32:41;7.07;;;2.57;;
11500;SDS011;5807;51.606;7.624;2022-11-15T15:35:10;3.07;;;2.20;;
11500;SDS011;5807;51.606;7.624;2022-11-15T15:37:38;5.43;;;2.93;;
11500;SDS011;5807;51.606;7.624;2022-11-15T15:40:08;5.53;;;3.83;;
11500;SDS011;5807;51.606;7.624;2022-11-15T15:42:38;8.60;;;3.33;;